sensor_id;sensor_type;location;lat;lon;timestamp;P1;durP1;ratioP1;P2;durP2;ratioP2
43146;SDS011;28752;48.266;7.402;2022-12-19T00:00:31;86.57;;;35.65;;
43146;SDS011;28752;48.266;7.402;2022-12-19T00:02:56;85.00;;;36.10;;
43146;SDS011;28752;48.266;7.402;2022-12-19T00:05:22;92.30;;;37.50;;
43146;SDS011;28752;48.266;7.402;2022-12-19T00:07:47;93.03;;;36.43;;
43146;SDS011;28752;48.266;7.402;2022-12-19T00:10:13;92.10;;;39.28;;
43146;SDS011;28752;48.266;7.402;2022-12-19T00:12:38;96.47;;;40.67;;
43146;SDS011;28752;48.266;7.402;2022-12-19T00:15:04;92.63;;;37.73;;
43146;SDS011;28752;48.266;7.402;2022-12-19T00:17:29;93.50;;;36.78;;
43146;SDS011;28752;48.266;7.402;2022-12-19T00:19:56;82.55;;;37.53;;
43146;SDS011;28752;48.266;7.402;2022-12-19T00:22:22;82.27;;;37.37;;
43146;SDS011;28752;48.266;7.402;2022-12-19T00:24:47;77.63;;;34.92;;
43146;SDS011;28752;48.266;7.402;2022-12-19T00:27:13;73.60;;;33.03;;
43146;SDS011;28752;48.266;7.402;2022-12-19T00:29:38;79.67;;;36.20;;
43146;SDS011;28752;48.266;7.402;2022-12-19T00:32:03;77.60;;;35.80;;
43146;SDS011;28752;48.266;7.402;2022-12-19T00:34:29;77.07;;;35.63;;
43146;SDS011;28752;48.266;7.402;2022-12-19T00:36:54;75.03;;;36.30;;
43146;SDS011;28752;48.266;7.402;2022-12-19T00:39:20;76.30;;;32.83;;
43146;SDS011;28752;48.266;7.402;2022-12-19T00:41:45;83.47;;;38.00;;
43146;SDS011;28752;48.266;7.402;2022-12-19T00:44:11;88.10;;;38.10;;
43146;SDS011;28752;48.266;7.402;2022-12-19T00:46:38;81.80;;;35.60;;
43146;SDS011;28752;48.266;7.402;2022-12-19T00:49:04;85.53;;;38.03;;
43146;SDS011;28752;48.266;7.402;2022-12-19T00:51:31;77.18;;;34.42;;
43146;SDS011;28752;48.266;7.402;2022-12-19T00:53:58;81.72;;;36.38;;
43146;SDS011;28752;48.266;7.402;2022-12-19T00:56:28;81.30;;;36.15;;
43146;SDS011;28752;48.266;7.402;2022-12-19T00:58:55;85.10;;;36.05;;
43146;SDS011;28752;48.266;7.402;2022-12-19T01:03:55;82.47;;;36.78;;
43146;SDS011;28752;48.266;7.402;2022-12-19T01:06:22;85.40;;;36.17;;
43146;SDS011;28752;48.266;7.402;2022-12-19T01:08:48;90.50;;;38.80;;
43146;SDS011;28752;48.266;7.402;2022-12-19T01:11:13;85.70;;;37.27;;
43146;SDS011;28752;48.266;7.402;2022-12-19T01:13:39;79.63;;;34.67;;
43146;SDS011;28752;48.266;7.402;2022-12-19T01:16:06;88.82;;;37.50;;
43146;SDS011;28752;48.266;7.402;2022-12-19T01:18:34;96.30;;;42.92;;
43146;SDS011;28752;48.266;7.402;2022-12-19T01:21:01;86.72;;;42.28;;
43146;SDS011;28752;48.266;7.402;2022-12-19T01:23:31;84.05;;;37.05;;
43146;SDS011;28752;48.266;7.402;2022-12-19T01:25:57;78.93;;;37.67;;
43146;SDS011;28752;48.266;7.402;2022-12-19T01:28:22;83.72;;;38.38;;
43146;SDS011;28752;48.266;7.402;2022-12-19T01:30:49;84.18;;;38.83;;
43146;SDS011;28752;48.266;7.402;2022-12-19T01:33:16;83.45;;;38.22;;
43146;SDS011;28752;48.266;7.402;2022-12-19T01:35:43;88.00;;;38.97;;
43146;SDS011;28752;48.266;7.402;2022-12-19T01:38:13;83.82;;;38.13;;
43146;SDS011;28752;48.266;7.402;2022-12-19T01:40:46;80.95;;;36.15;;
43146;SDS011;28752;48.266;7.402;2022-12-19T01:43:13;78.45;;;34.00;;
43146;SDS011;28752;48.266;7.402;2022-12-19T01:45:39;77.75;;;35.17;;
43146;SDS011;28752;48.266;7.402;2022-12-19T01:48:16;78.63;;;34.35;;
43146;SDS011;28752;48.266;7.402;2022-12-19T01:53:15;78.43;;;38.88;;
43146;SDS011;28752;48.266;7.402;2022-12-19T01:55:41;74.28;;;37.33;;
43146;SDS011;28752;48.266;7.402;2022-12-19T02:00:34;70.60;;;33.80;;
43146;SDS011;28752;48.266;7.402;2022-12-19T02:03:00;72.30;;;35.23;;
43146;SDS011;28752;48.266;7.402;2022-12-19T02:05:31;82.72;;;40.92;;
43146;SDS011;28752;48.266;7.402;2022-12-19T02:07:57;66.38;;;33.45;;
43146;SDS011;28752;48.266;7.402;2022-12-19T02:10:24;68.13;;;32.83;;
43146;SDS011;28752;48.266;7.402;2022-12-19T02:12:49;65.37;;;32.53;;
43146;SDS011;28752;48.266;7.402;2022-12-19T02:15:15;60.58;;;31.58;;
43146;SDS011;28752;48.266;7.402;2022-12-19T02:23:22;68.07;;;32.58;;
43146;SDS011;28752;48.266;7.402;2022-12-19T02:31:20;68.40;;;33.77;;
43146;SDS011;28752;48.266;7.402;2022-12-19T02:39:33;66.85;;;32.53;;
43146;SDS011;28752;48.266;7.402;2022-12-19T02:42:05;67.55;;;31.63;;
43146;SDS011;28752;48.266;7.402;2022-12-19T02:44:38;66.25;;;31.50;;
43146;SDS011;28752;48.266;7.402;2022-12-19T02:47:09;68.40;;;32.63;;
43146;SDS011;28752;48.266;7.402;2022-12-19T02:49:36;69.30;;;32.53;;
43146;SDS011;28752;48.266;7.402;2022-12-19T02:54:33;68.03;;;31.38;;
43146;SDS011;28752;48.266;7.402;2022-12-19T02:57:11;63.60;;;29.97;;
43146;SDS011;28752;48.266;7.402;2022-12-19T02:59:49;66.40;;;31.45;;
43146;SDS011;28752;48.266;7.402;2022-12-19T03:12:34;69.65;;;33.10;;
43146;SDS011;28752;48.266;7.402;2022-12-19T03:15:04;72.72;;;32.97;;
43146;SDS011;28752;48.266;7.402;2022-12-19T03:17:35;66.30;;;32.60;;
43146;SDS011;28752;48.266;7.402;2022-12-19T03:20:09;69.05;;;31.92;;
43146;SDS011;28752;48.266;7.402;2022-12-19T03:22:50;65.45;;;29.52;;
43146;SDS011;28752;48.266;7.402;2022-12-19T03:25:16;63.87;;;29.57;;
43146;SDS011;28752;48.266;7.402;2022-12-19T03:27:44;64.53;;;30.90;;
43146;SDS011;28752;48.266;7.402;2022-12-19T03:30:12;52.70;;;27.98;;
43146;SDS011;28752;48.266;7.402;2022-12-19T03:32:38;48.13;;;26.95;;
43146;SDS011;28752;48.266;7.402;2022-12-19T03:35:11;54.15;;;29.60;;
43146;SDS011;28752;48.266;7.402;2022-12-19T03:37:47;50.65;;;27.73;;
43146;SDS011;28752;48.266;7.402;2022-12-19T03:40:17;52.78;;;27.27;;
43146;SDS011;28752;48.266;7.402;2022-12-19T03:42:46;57.65;;;28.65;;
43146;SDS011;28752;48.266;7.402;2022-12-19T03:48:21;57.78;;;26.67;;
43146;SDS011;28752;48.266;7.402;2022-12-19T03:54:08;57.10;;;28.35;;
43146;SDS011;28752;48.266;7.402;2022-12-19T03:59:22;64.18;;;31.10;;
43146;SDS011;28752;48.266;7.402;2022-12-19T04:02:03;58.78;;;29.45;;
43146;SDS011;28752;48.266;7.402;2022-12-19T04:04:29;61.45;;;30.00;;
43146;SDS011;28752;48.266;7.402;2022-12-19T04:07:00;60.85;;;29.05;;
43146;SDS011;28752;48.266;7.402;2022-12-19T04:09:27;58.65;;;28.58;;
43146;SDS011;28752;48.266;7.402;2022-12-19T04:12:04;62.83;;;29.83;;
43146;SDS011;28752;48.266;7.402;2022-12-19T04:14:36;64.70;;;31.40;;
43146;SDS011;28752;48.266;7.402;2022-12-19T04:17:06;65.13;;;31.45;;
43146;SDS011;28752;48.266;7.402;2022-12-19T04:22:06;62.50;;;29.95;;
43146;SDS011;28752;48.266;7.402;2022-12-19T04:24:39;60.97;;;28.40;;
43146;SDS011;28752;48.266;7.402;2022-12-19T04:27:07;59.28;;;28.98;;
43146;SDS011;28752;48.266;7.402;2022-12-19T04:29:35;62.33;;;30.85;;
43146;SDS011;28752;48.266;7.402;2022-12-19T04:32:02;59.70;;;31.55;;
43146;SDS011;28752;48.266;7.402;2022-12-19T04:34:30;59.85;;;29.48;;
43146;SDS011;28752;48.266;7.402;2022-12-19T04:36:55;63.55;;;31.95;;
43146;SDS011;28752;48.266;7.402;2022-12-19T04:39:21;68.40;;;34.03;;
43146;SDS011;28752;48.266;7.402;2022-12-19T04:41:46;63.73;;;31.77;;
43146;SDS011;28752;48.266;7.402;2022-12-19T04:44:12;61.07;;;29.80;;
43146;SDS011;28752;48.266;7.402;2022-12-19T04:46:37;57.97;;;28.37;;
43146;SDS011;28752;48.266;7.402;2022-12-19T04:49:02;55.30;;;28.87;;
43146;SDS011;28752;48.266;7.402;2022-12-19T04:51:28;87.53;;;39.87;;
43146;SDS011;28752;48.266;7.402;2022-12-19T04:53:53;61.13;;;30.03;;
43146;SDS011;28752;48.266;7.402;2022-12-19T04:56:18;48.87;;;27.43;;
43146;SDS011;28752;48.266;7.402;2022-12-19T04:58:44;50.30;;;27.03;;
43146;SDS011;28752;48.266;7.402;2022-12-19T05:01:09;46.33;;;25.63;;
43146;SDS011;28752;48.266;7.402;2022-12-19T05:03:35;44.90;;;24.90;;
43146;SDS011;28752;48.266;7.402;2022-12-19T05:06:18;42.90;;;23.70;;
43146;SDS011;28752;48.266;7.402;2022-12-19T05:08:44;41.67;;;25.20;;
43146;SDS011;28752;48.266;7.402;2022-12-19T05:11:11;41.63;;;23.95;;
43146;SDS011;28752;48.266;7.402;2022-12-19T05:13:38;42.33;;;25.42;;
43146;SDS011;28752;48.266;7.402;2022-12-19T05:16:07;42.13;;;25.17;;
43146;SDS011;28752;48.266;7.402;2022-12-19T05:18:34;43.35;;;25.92;;
43146;SDS011;28752;48.266;7.402;2022-12-19T05:21:01;46.22;;;27.38;;
43146;SDS011;28752;48.266;7.402;2022-12-19T05:23:27;45.90;;;25.75;;
43146;SDS011;28752;48.266;7.402;2022-12-19T05:25:52;43.80;;;25.60;;
43146;SDS011;28752;48.266;7.402;2022-12-19T05:28:21;39.00;;;24.25;;
43146;SDS011;28752;48.266;7.402;2022-12-19T05:30:46;46.90;;;25.37;;
43146;SDS011;28752;48.266;7.402;2022-12-19T05:33:12;43.33;;;26.47;;
43146;SDS011;28752;48.266;7.402;2022-12-19T05:35:37;39.90;;;24.53;;
43146;SDS011;28752;48.266;7.402;2022-12-19T05:38:03;42.55;;;25.17;;
43146;SDS011;28752;48.266;7.402;2022-12-19T05:40:29;47.60;;;28.55;;
43146;SDS011;28752;48.266;7.402;2022-12-19T05:42:54;50.42;;;31.17;;
43146;SDS011;28752;48.266;7.402;2022-12-19T05:45:20;45.27;;;26.57;;
43146;SDS011;28752;48.266;7.402;2022-12-19T05:47:46;59.17;;;35.38;;
43146;SDS011;28752;48.266;7.402;2022-12-19T05:50:15;53.08;;;31.33;;
43146;SDS011;28752;48.266;7.402;2022-12-19T05:52:42;53.15;;;30.60;;
43146;SDS011;28752;48.266;7.402;2022-12-19T05:55:07;57.47;;;34.75;;
43146;SDS011;28752;48.266;7.402;2022-12-19T05:57:34;65.20;;;40.03;;
43146;SDS011;28752;48.266;7.402;2022-12-19T06:00:00;51.55;;;31.90;;
43146;SDS011;28752;48.266;7.402;2022-12-19T06:02:26;41.15;;;25.35;;
43146;SDS011;28752;48.266;7.402;2022-12-19T06:04:51;46.92;;;27.60;;
43146;SDS011;28752;48.266;7.402;2022-12-19T06:07:17;64.68;;;34.65;;
43146;SDS011;28752;48.266;7.402;2022-12-19T06:09:43;53.20;;;29.60;;
43146;SDS011;28752;48.266;7.402;2022-12-19T06:12:08;54.57;;;29.40;;
43146;SDS011;28752;48.266;7.402;2022-12-19T06:14:33;64.27;;;31.30;;
43146;SDS011;28752;48.266;7.402;2022-12-19T06:16:59;50.90;;;27.60;;
43146;SDS011;28752;48.266;7.402;2022-12-19T06:19:24;49.63;;;27.63;;
43146;SDS011;28752;48.266;7.402;2022-12-19T06:21:49;49.23;;;26.57;;
43146;SDS011;28752;48.266;7.402;2022-12-19T06:24:15;49.30;;;27.70;;
43146;SDS011;28752;48.266;7.402;2022-12-19T06:26:41;54.58;;;29.17;;
43146;SDS011;28752;48.266;7.402;2022-12-19T06:29:06;52.45;;;28.45;;
43146;SDS011;28752;48.266;7.402;2022-12-19T06:31:32;60.83;;;35.00;;
43146;SDS011;28752;48.266;7.402;2022-12-19T06:33:57;52.77;;;29.87;;
43146;SDS011;28752;48.266;7.402;2022-12-19T06:36:24;53.90;;;31.53;;
43146;SDS011;28752;48.266;7.402;2022-12-19T06:38:50;56.05;;;31.15;;
43146;SDS011;28752;48.266;7.402;2022-12-19T06:41:17;56.92;;;31.90;;
43146;SDS011;28752;48.266;7.402;2022-12-19T06:44:03;47.95;;;27.48;;
43146;SDS011;28752;48.266;7.402;2022-12-19T06:46:30;46.92;;;26.38;;
43146;SDS011;28752;48.266;7.402;2022-12-19T06:48:55;43.83;;;25.00;;
43146;SDS011;28752;48.266;7.402;2022-12-19T06:51:21;46.47;;;25.87;;
43146;SDS011;28752;48.266;7.402;2022-12-19T06:53:47;50.65;;;25.52;;
43146;SDS011;28752;48.266;7.402;2022-12-19T06:56:13;49.17;;;26.50;;
43146;SDS011;28752;48.266;7.402;2022-12-19T06:58:39;49.10;;;26.35;;
43146;SDS011;28752;48.266;7.402;2022-12-19T07:01:05;48.43;;;27.50;;
43146;SDS011;28752;48.266;7.402;2022-12-19T07:03:39;51.90;;;27.77;;
43146;SDS011;28752;48.266;7.402;2022-12-19T07:06:05;49.08;;;26.42;;
43146;SDS011;28752;48.266;7.402;2022-12-19T07:08:31;55.55;;;29.98;;
43146;SDS011;28752;48.266;7.402;2022-12-19T07:10:57;50.50;;;26.83;;
43146;SDS011;28752;48.266;7.402;2022-12-19T07:13:23;68.07;;;35.33;;
43146;SDS011;28752;48.266;7.402;2022-12-19T07:15:48;66.70;;;34.03;;
43146;SDS011;28752;48.266;7.402;2022-12-19T07:18:15;80.85;;;40.45;;
43146;SDS011;28752;48.266;7.402;2022-12-19T07:20:41;80.90;;;41.80;;
43146;SDS011;28752;48.266;7.402;2022-12-19T07:23:10;80.55;;;40.70;;
43146;SDS011;28752;48.266;7.402;2022-12-19T07:25:39;64.50;;;33.90;;
43146;SDS011;28752;48.266;7.402;2022-12-19T07:28:05;63.97;;;33.97;;
43146;SDS011;28752;48.266;7.402;2022-12-19T07:30:31;58.28;;;30.35;;
43146;SDS011;28752;48.266;7.402;2022-12-19T07:32:56;56.87;;;29.63;;
43146;SDS011;28752;48.266;7.402;2022-12-19T07:35:22;47.93;;;26.77;;
43146;SDS011;28752;48.266;7.402;2022-12-19T07:37:48;56.67;;;27.95;;
43146;SDS011;28752;48.266;7.402;2022-12-19T07:40:14;51.10;;;27.42;;
43146;SDS011;28752;48.266;7.402;2022-12-19T07:42:40;53.65;;;28.95;;
43146;SDS011;28752;48.266;7.402;2022-12-19T07:45:05;48.97;;;28.37;;
43146;SDS011;28752;48.266;7.402;2022-12-19T07:47:31;62.42;;;33.95;;
43146;SDS011;28752;48.266;7.402;2022-12-19T07:49:57;58.97;;;33.60;;
43146;SDS011;28752;48.266;7.402;2022-12-19T07:52:23;69.07;;;39.10;;
43146;SDS011;28752;48.266;7.402;2022-12-19T07:54:48;69.87;;;38.73;;
43146;SDS011;28752;48.266;7.402;2022-12-19T07:57:13;74.20;;;40.00;;
43146;SDS011;28752;48.266;7.402;2022-12-19T07:59:39;72.87;;;40.57;;
43146;SDS011;28752;48.266;7.402;2022-12-19T08:02:04;67.73;;;37.13;;
43146;SDS011;28752;48.266;7.402;2022-12-19T08:04:30;65.72;;;36.78;;
43146;SDS011;28752;48.266;7.402;2022-12-19T08:06:55;73.23;;;40.37;;
43146;SDS011;28752;48.266;7.402;2022-12-19T08:09:21;67.57;;;37.40;;
43146;SDS011;28752;48.266;7.402;2022-12-19T08:11:46;62.57;;;35.67;;
43146;SDS011;28752;48.266;7.402;2022-12-19T08:14:12;62.43;;;36.23;;
43146;SDS011;28752;48.266;7.402;2022-12-19T08:16:37;59.97;;;35.03;;
43146;SDS011;28752;48.266;7.402;2022-12-19T08:19:02;61.13;;;34.53;;
43146;SDS011;28752;48.266;7.402;2022-12-19T08:21:28;57.03;;;33.17;;
43146;SDS011;28752;48.266;7.402;2022-12-19T08:23:54;55.90;;;32.13;;
43146;SDS011;28752;48.266;7.402;2022-12-19T08:26:20;56.40;;;32.47;;
43146;SDS011;28752;48.266;7.402;2022-12-19T08:28:54;54.47;;;30.27;;
43146;SDS011;28752;48.266;7.402;2022-12-19T08:31:22;43.00;;;23.77;;
43146;SDS011;28752;48.266;7.402;2022-12-19T08:33:50;37.70;;;21.35;;
43146;SDS011;28752;48.266;7.402;2022-12-19T08:36:19;41.85;;;23.48;;
43146;SDS011;28752;48.266;7.402;2022-12-19T08:38:46;39.88;;;23.13;;
43146;SDS011;28752;48.266;7.402;2022-12-19T08:41:13;40.08;;;23.40;;
43146;SDS011;28752;48.266;7.402;2022-12-19T08:43:40;45.85;;;26.65;;
43146;SDS011;28752;48.266;7.402;2022-12-19T08:46:06;66.18;;;40.67;;
43146;SDS011;28752;48.266;7.402;2022-12-19T08:48:32;65.20;;;39.60;;
43146;SDS011;28752;48.266;7.402;2022-12-19T08:53:25;90.88;;;49.45;;
43146;SDS011;28752;48.266;7.402;2022-12-19T08:55:55;79.78;;;45.88;;
43146;SDS011;28752;48.266;7.402;2022-12-19T08:58:22;74.90;;;44.28;;
43146;SDS011;28752;48.266;7.402;2022-12-19T09:00:49;77.15;;;46.03;;
43146;SDS011;28752;48.266;7.402;2022-12-19T09:03:14;77.28;;;46.30;;
43146;SDS011;28752;48.266;7.402;2022-12-19T09:05:40;82.53;;;47.57;;
43146;SDS011;28752;48.266;7.402;2022-12-19T09:08:05;81.30;;;47.07;;
43146;SDS011;28752;48.266;7.402;2022-12-19T09:10:30;74.70;;;46.03;;
43146;SDS011;28752;48.266;7.402;2022-12-19T09:12:56;78.80;;;47.63;;
43146;SDS011;28752;48.266;7.402;2022-12-19T09:15:22;78.93;;;45.97;;
43146;SDS011;28752;48.266;7.402;2022-12-19T09:17:48;82.35;;;52.58;;
43146;SDS011;28752;48.266;7.402;2022-12-19T09:20:13;73.43;;;46.47;;
43146;SDS011;28752;48.266;7.402;2022-12-19T09:22:39;77.30;;;47.13;;
43146;SDS011;28752;48.266;7.402;2022-12-19T09:25:04;76.90;;;48.47;;
43146;SDS011;28752;48.266;7.402;2022-12-19T09:27:30;80.18;;;46.50;;
43146;SDS011;28752;48.266;7.402;2022-12-19T09:29:56;70.47;;;44.10;;
43146;SDS011;28752;48.266;7.402;2022-12-19T09:32:21;61.27;;;35.40;;
43146;SDS011;28752;48.266;7.402;2022-12-19T09:34:46;52.33;;;31.10;;
43146;SDS011;28752;48.266;7.402;2022-12-19T09:37:12;53.27;;;31.17;;
43146;SDS011;28752;48.266;7.402;2022-12-19T09:39:37;51.30;;;29.93;;
43146;SDS011;28752;48.266;7.402;2022-12-19T09:47:41;48.45;;;28.13;;
43146;SDS011;28752;48.266;7.402;2022-12-19T09:50:18;49.60;;;28.08;;
43146;SDS011;28752;48.266;7.402;2022-12-19T09:52:55;47.75;;;27.42;;
43146;SDS011;28752;48.266;7.402;2022-12-19T09:55:26;49.35;;;27.50;;
43146;SDS011;28752;48.266;7.402;2022-12-19T10:00:35;55.50;;;27.58;;
43146;SDS011;28752;48.266;7.402;2022-12-19T10:03:19;50.55;;;27.40;;
43146;SDS011;28752;48.266;7.402;2022-12-19T10:05:54;49.30;;;27.83;;
43146;SDS011;28752;48.266;7.402;2022-12-19T10:08:26;59.17;;;33.83;;
43146;SDS011;28752;48.266;7.402;2022-12-19T10:19:14;51.03;;;28.92;;
43146;SDS011;28752;48.266;7.402;2022-12-19T10:27:11;51.72;;;29.15;;
43146;SDS011;28752;48.266;7.402;2022-12-19T10:35:18;49.83;;;28.63;;
43146;SDS011;28752;48.266;7.402;2022-12-19T10:40:33;56.75;;;32.90;;
43146;SDS011;28752;48.266;7.402;2022-12-19T10:45:41;51.40;;;31.25;;
43146;SDS011;28752;48.266;7.402;2022-12-19T10:48:10;51.85;;;32.75;;
43146;SDS011;28752;48.266;7.402;2022-12-19T10:50:42;72.18;;;41.78;;
43146;SDS011;28752;48.266;7.402;2022-12-19T10:53:09;80.20;;;48.10;;
43146;SDS011;28752;48.266;7.402;2022-12-19T10:58:16;52.08;;;31.33;;
43146;SDS011;28752;48.266;7.402;2022-12-19T11:03:52;39.78;;;23.40;;
43146;SDS011;28752;48.266;7.402;2022-12-19T11:11:42;52.97;;;32.70;;
43146;SDS011;28752;48.266;7.402;2022-12-19T11:14:17;54.25;;;34.15;;
43146;SDS011;28752;48.266;7.402;2022-12-19T11:16:47;49.72;;;31.40;;
43146;SDS011;28752;48.266;7.402;2022-12-19T11:19:20;42.00;;;28.47;;
43146;SDS011;28752;48.266;7.402;2022-12-19T11:21:46;39.90;;;25.00;;
43146;SDS011;28752;48.266;7.402;2022-12-19T11:24:17;37.28;;;25.63;;
43146;SDS011;28752;48.266;7.402;2022-12-19T11:26:49;39.15;;;24.50;;
43146;SDS011;28752;48.266;7.402;2022-12-19T11:31:42;29.27;;;21.23;;
43146;SDS011;28752;48.266;7.402;2022-12-19T11:34:12;29.67;;;20.73;;
43146;SDS011;28752;48.266;7.402;2022-12-19T11:39:15;38.33;;;25.85;;
43146;SDS011;28752;48.266;7.402;2022-12-19T11:41:47;35.88;;;24.80;;
43146;SDS011;28752;48.266;7.402;2022-12-19T11:50:13;37.03;;;25.65;;
43146;SDS011;28752;48.266;7.402;2022-12-19T11:52:48;36.65;;;23.60;;
43146;SDS011;28752;48.266;7.402;2022-12-19T11:55:27;35.70;;;21.35;;
43146;SDS011;28752;48.266;7.402;2022-12-19T11:58:11;34.80;;;21.05;;
43146;SDS011;28752;48.266;7.402;2022-12-19T12:00:45;24.52;;;18.83;;
43146;SDS011;28752;48.266;7.402;2022-12-19T12:06:16;30.98;;;21.33;;
43146;SDS011;28752;48.266;7.402;2022-12-19T12:08:57;32.10;;;22.48;;
43146;SDS011;28752;48.266;7.402;2022-12-19T12:11:52;32.35;;;22.85;;
43146;SDS011;28752;48.266;7.402;2022-12-19T12:17:01;32.33;;;21.80;;
43146;SDS011;28752;48.266;7.402;2022-12-19T12:30:38;32.72;;;22.73;;
43146;SDS011;28752;48.266;7.402;2022-12-19T12:33:14;35.08;;;23.33;;
43146;SDS011;28752;48.266;7.402;2022-12-19T12:35:55;35.40;;;22.10;;
43146;SDS011;28752;48.266;7.402;2022-12-19T12:38:32;30.52;;;19.70;;
43146;SDS011;28752;48.266;7.402;2022-12-19T12:41:23;31.98;;;19.63;;
43146;SDS011;28752;48.266;7.402;2022-12-19T12:44:14;55.80;;;30.70;;
43146;SDS011;28752;48.266;7.402;2022-12-19T12:46:47;30.93;;;19.63;;
43146;SDS011;28752;48.266;7.402;2022-12-19T12:52:03;28.80;;;17.13;;
43146;SDS011;28752;48.266;7.402;2022-12-19T12:54:38;23.73;;;14.73;;
43146;SDS011;28752;48.266;7.402;2022-12-19T12:57:18;22.85;;;14.45;;
43146;SDS011;28752;48.266;7.402;2022-12-19T13:02:39;25.27;;;15.18;;
43146;SDS011;28752;48.266;7.402;2022-12-19T13:05:50;21.85;;;14.05;;
43146;SDS011;28752;48.266;7.402;2022-12-19T13:08:00;23.23;;;14.60;;
43146;SDS011;28752;48.266;7.402;2022-12-19T13:14:01;24.40;;;15.60;;
43146;SDS011;28752;48.266;7.402;2022-12-19T13:19:14;26.25;;;16.08;;
43146;SDS011;28752;48.266;7.402;2022-12-19T13:35:50;35.38;;;20.70;;
43146;SDS011;28752;48.266;7.402;2022-12-19T13:43:12;55.83;;;35.77;;
43146;SDS011;28752;48.266;7.402;2022-12-19T13:46:02;57.47;;;37.80;;
43146;SDS011;28752;48.266;7.402;2022-12-19T13:48:30;57.47;;;38.00;;
43146;SDS011;28752;48.266;7.402;2022-12-19T13:51:03;62.58;;;36.00;;
43146;SDS011;28752;48.266;7.402;2022-12-19T13:53:31;57.13;;;36.90;;
43146;SDS011;28752;48.266;7.402;2022-12-19T13:56:01;54.97;;;34.03;;
43146;SDS011;28752;48.266;7.402;2022-12-19T13:58:29;59.35;;;38.20;;
43146;SDS011;28752;48.266;7.402;2022-12-19T14:01:02;61.85;;;39.10;;
43146;SDS011;28752;48.266;7.402;2022-12-19T14:03:36;56.38;;;36.47;;
43146;SDS011;28752;48.266;7.402;2022-12-19T14:06:26;56.25;;;35.85;;
43146;SDS011;28752;48.266;7.402;2022-12-19T14:08:57;42.42;;;28.65;;
43146;SDS011;28752;48.266;7.402;2022-12-19T14:11:27;44.28;;;28.83;;
43146;SDS011;28752;48.266;7.402;2022-12-19T14:13:55;40.10;;;26.65;;
43146;SDS011;28752;48.266;7.402;2022-12-19T14:16:42;41.40;;;28.02;;
43146;SDS011;28752;48.266;7.402;2022-12-19T14:19:18;59.53;;;37.83;;
43146;SDS011;28752;48.266;7.402;2022-12-19T14:21:46;56.22;;;38.63;;
43146;SDS011;28752;48.266;7.402;2022-12-19T14:26:42;50.25;;;34.97;;
43146;SDS011;28752;48.266;7.402;2022-12-19T14:29:32;60.72;;;39.63;;
43146;SDS011;28752;48.266;7.402;2022-12-19T14:32:06;64.85;;;41.38;;
43146;SDS011;28752;48.266;7.402;2022-12-19T14:34:32;62.17;;;37.83;;
43146;SDS011;28752;48.266;7.402;2022-12-19T14:36:59;53.88;;;34.88;;
43146;SDS011;28752;48.266;7.402;2022-12-19T14:39:27;51.13;;;33.33;;
43146;SDS011;28752;48.266;7.402;2022-12-19T14:42:03;52.72;;;33.38;;
43146;SDS011;28752;48.266;7.402;2022-12-19T14:44:51;48.97;;;33.28;;
43146;SDS011;28752;48.266;7.402;2022-12-19T14:47:20;45.42;;;30.13;;
43146;SDS011;28752;48.266;7.402;2022-12-19T14:50:24;79.68;;;49.53;;
43146;SDS011;28752;48.266;7.402;2022-12-19T14:55:42;101.53;;;59.00;;
43146;SDS011;28752;48.266;7.402;2022-12-19T14:58:15;85.05;;;50.78;;
43146;SDS011;28752;48.266;7.402;2022-12-19T15:00:44;59.80;;;38.85;;
43146;SDS011;28752;48.266;7.402;2022-12-19T15:03:16;50.70;;;33.65;;
43146;SDS011;28752;48.266;7.402;2022-12-19T15:05:46;46.92;;;32.40;;
43146;SDS011;28752;48.266;7.402;2022-12-19T15:08:11;46.75;;;29.33;;
43146;SDS011;28752;48.266;7.402;2022-12-19T15:10:37;44.38;;;27.55;;
43146;SDS011;28752;48.266;7.402;2022-12-19T15:15:50;40.22;;;27.55;;
43146;SDS011;28752;48.266;7.402;2022-12-19T15:20:58;42.58;;;30.25;;
43146;SDS011;28752;48.266;7.402;2022-12-19T15:23:26;40.70;;;28.95;;
43146;SDS011;28752;48.266;7.402;2022-12-19T15:30:54;43.00;;;29.77;;
43146;SDS011;28752;48.266;7.402;2022-12-19T15:33:23;49.15;;;33.40;;
43146;SDS011;28752;48.266;7.402;2022-12-19T15:35:49;46.45;;;32.97;;
43146;SDS011;28752;48.266;7.402;2022-12-19T15:38:14;54.43;;;39.90;;
43146;SDS011;28752;48.266;7.402;2022-12-19T15:40:40;52.67;;;36.60;;
43146;SDS011;28752;48.266;7.402;2022-12-19T15:43:21;53.95;;;38.17;;
43146;SDS011;28752;48.266;7.402;2022-12-19T15:45:57;67.72;;;46.47;;
43146;SDS011;28752;48.266;7.402;2022-12-19T15:48:24;40.85;;;31.77;;
43146;SDS011;28752;48.266;7.402;2022-12-19T15:55:45;56.97;;;36.00;;
43146;SDS011;28752;48.266;7.402;2022-12-19T15:58:12;62.05;;;39.80;;
43146;SDS011;28752;48.266;7.402;2022-12-19T16:00:38;69.50;;;42.60;;
43146;SDS011;28752;48.266;7.402;2022-12-19T16:03:10;76.00;;;48.03;;
43146;SDS011;28752;48.266;7.402;2022-12-19T16:05:37;97.32;;;55.63;;
43146;SDS011;28752;48.266;7.402;2022-12-19T16:08:08;69.63;;;42.25;;
43146;SDS011;28752;48.266;7.402;2022-12-19T16:10:35;89.43;;;53.05;;
43146;SDS011;28752;48.266;7.402;2022-12-19T16:13:01;92.57;;;64.37;;
43146;SDS011;28752;48.266;7.402;2022-12-19T16:15:28;129.10;;;79.57;;
43146;SDS011;28752;48.266;7.402;2022-12-19T16:17:55;94.10;;;59.88;;
43146;SDS011;28752;48.266;7.402;2022-12-19T16:20:23;95.18;;;57.67;;
43146;SDS011;28752;48.266;7.402;2022-12-19T16:22:51;72.40;;;48.03;;
43146;SDS011;28752;48.266;7.402;2022-12-19T16:25:17;82.38;;;50.40;;
43146;SDS011;28752;48.266;7.402;2022-12-19T16:27:43;57.60;;;37.50;;
43146;SDS011;28752;48.266;7.402;2022-12-19T16:30:19;61.88;;;39.50;;
43146;SDS011;28752;48.266;7.402;2022-12-19T16:32:51;86.18;;;53.35;;
43146;SDS011;28752;48.266;7.402;2022-12-19T16:35:18;80.20;;;50.33;;
43146;SDS011;28752;48.266;7.402;2022-12-19T16:37:46;80.95;;;50.15;;
43146;SDS011;28752;48.266;7.402;2022-12-19T16:40:18;84.53;;;53.28;;
43146;SDS011;28752;48.266;7.402;2022-12-19T16:42:49;79.85;;;48.30;;
43146;SDS011;28752;48.266;7.402;2022-12-19T16:45:24;84.78;;;52.45;;
43146;SDS011;28752;48.266;7.402;2022-12-19T16:47:50;64.78;;;44.42;;
43146;SDS011;28752;48.266;7.402;2022-12-19T16:50:23;62.92;;;42.33;;
43146;SDS011;28752;48.266;7.402;2022-12-19T16:52:51;60.53;;;41.60;;
43146;SDS011;28752;48.266;7.402;2022-12-19T16:55:17;59.65;;;42.00;;
43146;SDS011;28752;48.266;7.402;2022-12-19T16:57:44;60.90;;;42.10;;
43146;SDS011;28752;48.266;7.402;2022-12-19T17:00:12;65.13;;;45.15;;
43146;SDS011;28752;48.266;7.402;2022-12-19T17:02:44;61.47;;;41.80;;
43146;SDS011;28752;48.266;7.402;2022-12-19T17:05:15;63.97;;;43.83;;
43146;SDS011;28752;48.266;7.402;2022-12-19T17:07:40;59.92;;;41.47;;
43146;SDS011;28752;48.266;7.402;2022-12-19T17:10:06;63.73;;;44.13;;
43146;SDS011;28752;48.266;7.402;2022-12-19T17:12:31;62.30;;;46.33;;
43146;SDS011;28752;48.266;7.402;2022-12-19T17:14:57;66.60;;;46.63;;
43146;SDS011;28752;48.266;7.402;2022-12-19T17:17:23;64.68;;;44.90;;
43146;SDS011;28752;48.266;7.402;2022-12-19T17:19:48;89.07;;;62.83;;
43146;SDS011;28752;48.266;7.402;2022-12-19T17:22:15;66.57;;;45.60;;
43146;SDS011;28752;48.266;7.402;2022-12-19T17:24:44;64.72;;;43.47;;